Home > Products > Valid Products > TAF

000
FTUS43 KIND 231700
TAFLAF
TAF
KLAF 231720Z 2318/2418 36014G18KT P6SM SCT020 OVC050
     FM232300 02013KT P6SM BKN120
     FM240300 03005KT P6SM SKC=



000
FTUS43 KIND 231700
TAFIND
TAF
KIND 231720Z 2318/2424 22004KT P6SM FEW035 BKN070 OVC100
     FM231900 VRB05KT 5SM BR VCSH BKN010 OVC030
     FM232200 36010KT P6SM BKN030 BKN250
     FM240100 01010KT P6SM BKN100
     FM240400 01010KT P6SM OVC250
     FM240900 02008KT P6SM SKC=



000
FTUS43 KIND 231400 CCA
TAFIND
TAF COR
KIND 231429Z 2314/2418 16009KT 3SM TSRA BR VCTS FEW005 BKN016CB
     FM231600 34011KT P6SM BKN040
     FM231900 35013KT P6SM SCT040 BKN250=



000
FTUS43 KIND 231400 AAB
TAFLAF
TAF AMD
KLAF 231428Z 2314/2412 01009KT P6SM OVC012
     FM240200 03005KT P6SM SCT250=



000
FTUS43 KIND 231400 AAB
TAFIND
TAF AMD
KIND 231428Z 2314/2418 16009KT 3SM TSRA BR VCTS FEW005 BKN016CB
      OVC090
     FM231600 34011KT P6SM BKN040
     FM231900 35013KT P6SM SCT040 BKN250=



000
FTUS43 KIND 231300 AAA
TAFLAF
TAF AMD
KLAF 231315Z 2313/2412 01010KT 4SM BR BKN008 OVC017
     FM231400 02011KT P6SM SCT010 BKN050 BKN250
     FM240200 03005KT P6SM SCT250=



000
FTUS43 KIND 231300 AAA
TAFIND
TAF AMD
KIND 231311Z 2313/2418 00000KT P6SM VCTS FEW030 BKN090CB
     FM231400 33010KT P6SM VCTS SCT015 BKN025CB
     FM231600 34011KT P6SM BKN040
     FM231900 35013KT P6SM SCT040 BKN250=



000
FTUS43 KIND 231100
TAFLAF
TAF
KLAF 231130Z 2312/2412 36008KT 5SM BR SCT010 BKN035
     FM231400 02011KT P6SM SCT050 BKN250
     FM240200 03005KT P6SM SCT250
      AMD LTD TO CLD VIS AND WIND TIL 231300=



000
FTUS43 KIND 231100
TAFIND
TAF
KIND 231130Z 2312/2418 15008KT 5SM BR VCSH SCT015 BKN035
     FM231400 33010KT P6SM VCSH SCT015 BKN025
     FM231600 34011KT P6SM BKN040
     FM231900 35013KT P6SM SCT040 BKN250=



000
FTUS43 KIND 231000 AAA
TAFIND
TAF AMD
KIND 231003Z 2310/2412 25006KT P6SM VCTS SCT015 BKN035CB
      TEMPO 2310/2312 5SM -TSRA BR OVC020CB
     FM231400 33010KT P6SM VCSH SCT015 BKN025
     FM231600 34011KT P6SM BKN040=



000
FTUS43 KIND 230900 AAB
TAFIND
TAF AMD
KIND 230938Z 2310/2412 25006KT P6SM VCTS SCT015 BKN035CB
     FM231400 34012KT P6SM SCT050 BKN250=



000
FTUS43 KIND 230800 AAA
TAFIND
TAF AMD
KIND 230806Z 2308/2412 23006KT P6SM SCT035 BKN100
     FM231000 25006KT P6SM VCTS BKN035CB
     FM231400 34012KT P6SM SCT050 BKN250=



000
FTUS43 KIND 230800 AAA
TAFLAF
TAF AMD
KLAF 230800Z 2308/2406 28003KT 6SM BR VCTS SCT020CB BKN035
      TEMPO 2308/2310 4SM -SHRA OVC035
     FM231200 36011KT P6SM SCT050 BKN250
      AMD LTD TO CLD VIS AND WIND TIL 231300=



000
FTUS43 KIND 230500
TAFLAF
TAF
KLAF 230526Z 2306/2406 24004KT 6SM BR SCT030 BKN100
     FM230800 28003KT 6SM BR VCSH BKN035
     FM231200 36011KT P6SM SCT050 BKN250
      AMD LTD TO CLD VIS AND WIND TIL 231300=



000
FTUS43 KIND 230500
TAFIND
TAF
KIND 230526Z 2306/2412 23006KT P6SM BKN100
     FM231000 27006KT P6SM VCSH BKN035
     FM231400 34012KT P6SM SCT050 BKN250=



000
FTUS43 KIND 230200 AAA
TAFIND
TAF AMD
KIND 230226Z 2302/2406 23008KT P6SM FEW045 SCT250
     FM231000 28006KT P6SM VCSH BKN040
     FM231400 34012KT P6SM SCT050 BKN250=



000
FTUS43 KIND 222300
TAFLAF
TAF
KLAF 222320Z 2300/2324 23006KT P6SM SCT250
     FM230700 28004KT 6SM HZ VCTS BKN040CB
     FM231100 36011KT P6SM SCT050 BKN250
      AMD LTD TO CLD VIS AND WIND 2301/2313=



000
FTUS43 KIND 222300
TAFIND
TAF
KIND 222320Z 2300/2406 23008KT P6SM FEW045 SCT250
     FM231000 28006KT P6SM VCSH BKN040
     FM231400 34012KT P6SM SCT050 BKN250=



000
FTUS43 KIND 222000 AAA
TAFIND
TAF AMD
KIND 222008Z 2220/2324 22012KT P6SM SCT050
     FM230000 24004KT P6SM BKN100
     FM230900 27006KT P6SM OVC035
     FM231500 33008KT P6SM OVC040
     FM232000 34012KT P6SM SCT045=



000
FTUS43 KIND 221700
TAFLAF
TAF
KLAF 221720Z 2218/2318 21008KT P6SM FEW060
     FM230000 23002KT P6SM BKN100
     FM230800 32004KT 6SM HZ VCTS OVC035CB
     FM231200 36010KT P6SM OVC040=



000
FTUS43 KIND 221700
TAFIND
TAF
KIND 221720Z 2218/2324 22008KT P6SM SCT050
     FM230000 24004KT P6SM BKN100
     FM230900 27006KT P6SM OVC035
     FM231500 33008KT P6SM OVC040
     FM232000 34012KT P6SM SCT045=



000
FTUS43 KIND 221400 AAB
TAFLAF
TAF AMD
KLAF 221411Z 2214/2312 20005KT P6SM SKC
     FM221600 22008KT P6SM SCT050
     FM230400 26006KT P6SM VCSH BKN040
     FM230900 33007KT P6SM BKN040=



000
FTUS43 KIND 221400 AAA
TAFIND
TAF AMD
KIND 221410Z 2214/2318 23005KT P6SM SKC
     FM221600 22009KT P6SM SCT060
     FM230600 25007KT P6SM SCT050 BKN150
     FM231200 30012KT P6SM BKN040=



000
FTUS43 KIND 221100 AAA
TAFLAF
TAF AMD
KLAF 221159Z 2212/2312 22005KT P6SM BCFG SKC
     FM221500 22008KT P6SM SCT040
     FM230400 26006KT P6SM VCSH BKN040
     FM230900 33007KT P6SM BKN040
      AMD LTD TO CLD VIS AND WIND TIL 221300=



000
FTUS43 KIND 221100
TAFIND
TAF
KIND 221120Z 2212/2318 VRB03KT P6SM SKC
     FM221500 22009KT P6SM SCT050
     FM230600 25007KT P6SM SCT050 BKN150
     FM231200 30012KT P6SM BKN040=



000
FTUS43 KIND 221100
TAFLAF
TAF
KLAF 221120Z 2212/2312 00000KT 3SM BR SKC
     FM221300 22005KT P6SM BCFG SKC
     FM221500 22008KT P6SM SCT040
     FM230400 26006KT P6SM VCSH BKN040
     FM230900 33007KT P6SM BKN040
      AMD LTD TO CLD VIS AND WIND TIL 221300=



000
FTUS43 KIND 220800 AAA
TAFIND
TAF AMD
KIND 220825Z 2208/2312 VRB03KT P6SM SKC
      TEMPO 2211/2213 5SM BR
     FM221500 20006KT P6SM SCT050
     FM221800 22010KT P6SM SCT050
     FM230600 25007KT P6SM SCT050 BKN100=



000
FTUS43 KIND 220500
TAFLAF
TAF
KLAF 220529Z 2206/2306 00000KT 6SM BR SKC
     FM220700 00000KT 2SM BR SKC
      TEMPO 2208/2211 1/2SM FG
     FM221300 22003KT P6SM SKC
     FM221500 22006KT P6SM FEW040
      AMD LTD TO CLD VIS AND WIND TIL 221300=



000
FTUS43 KIND 220500
TAFIND
TAF
KIND 220529Z 2206/2312 VRB03KT P6SM FEW050
      TEMPO 2211/2213 5SM BR
     FM221500 20006KT P6SM SCT050
     FM221800 22010KT P6SM SCT050
     FM230600 25007KT P6SM SCT050 BKN100=



000
FTUS43 KIND 220200 AAA
TAFIND
TAF AMD
KIND 220227Z 2202/2306 VRB03KT P6SM FEW050 BKN250
      TEMPO 2211/2213 5SM BR
     FM221500 20006KT P6SM SCT050
     FM221800 22010KT P6SM SCT050=



000
FTUS43 KIND 212300
TAFIND
TAF
KIND 212320Z 2200/2306 VRB03KT P6SM SCT050
     FM220200 00000KT P6SM SKC
      TEMPO 2211/2213 5SM BR
     FM221500 20006KT P6SM SCT050
     FM221800 22010KT P6SM SCT050=



000
FTUS43 KIND 212300
TAFLAF
TAF
KLAF 212320Z 2200/2224 VRB03KT P6SM SCT040
     FM220200 00000KT P6SM SKC
     FM220700 00000KT 2SM BR SKC
      TEMPO 2208/2211 1/2SM FG
     FM221300 22003KT P6SM SKC
     FM221500 22006KT P6SM FEW040
      AMD LTD TO CLD VIS AND WIND 2201/2213=



000
FTUS43 KIND 212000 AAA
TAFIND
TAF AMD
KIND 212026Z 2120/2224 22005KT P6SM SCT050
     FM220100 00000KT P6SM SKC
     FM221500 20006KT P6SM SCT050
     FM221800 22010KT P6SM SCT050=



000
FTUS43 KIND 211700
TAFIND
TAF
KIND 211720Z 2118/2224 19004KT P6SM SCT050
     FM220100 00000KT P6SM SKC
     FM221500 20006KT P6SM SCT050
     FM221800 22010KT P6SM SCT050=



000
FTUS43 KIND 211700
TAFLAF
TAF
KLAF 211720Z 2118/2218 20004KT P6SM SCT040
     FM220100 00000KT P6SM SKC
     FM220700 00000KT 2SM BR SKC
      TEMPO 2208/2211 1/2SM FG
     FM221200 00000KT P6SM SKC
     FM221500 22006KT P6SM FEW040=



000
FTUS43 KIND 211400 AAA
TAFIND
TAF AMD
KIND 211426Z 2114/2218 VRB03KT P6SM SCT050
     FM220000 13003KT P6SM SCT250
      TEMPO 2209/2212 5SM BR
     FM221500 22006KT P6SM SCT050=



000
FTUS43 KIND 211300 AAA
TAFLAF
TAF AMD
KLAF 211331Z 2114/2212 VRB03KT P6SM SCT040
     FM220000 VRB03KT P6SM SCT250
     FM220800 00000KT 4SM BR SKC
      TEMPO 2209/2212 1/2SM FG VV002=



000
FTUS43 KIND 211100
TAFLAF
TAF
KLAF 211125Z 2112/2212 00000KT 2SM BR SCT010 SCT250
     FM211400 VRB03KT P6SM SCT040
     FM220000 VRB03KT P6SM SCT250
     FM220800 00000KT 4SM BR SKC
      TEMPO 2209/2212 1/2SM FG VV002
      AMD LTD TO CLD VIS AND WIND TIL 211300=



000
FTUS43 KIND 211100
TAFIND
TAF
KIND 211125Z 2112/2218 VRB03KT P6SM SCT250
     FM211400 VRB03KT P6SM SCT040
     FM220000 13003KT P6SM SCT250
      TEMPO 2209/2212 5SM BR
     FM221500 22006KT P6SM SCT050=



000
FTUS43 KIND 210800 CCA
TAFLAF
TAF COR
KLAF 210810Z 2108/2206 00000KT 3SM BR SCT250
      TEMPO 2108/2112 1/4SM FG VV002
     FM211400 22004KT P6SM SCT040
      AMD LTD TO CLD VIS AND WIND TIL 211300=



000
FTUS43 KIND 210800 AAA
TAFIND
TAF AMD
KIND 210805Z 2108/2212 VRB03KT P6SM SCT250
      TEMPO 2110/2112 5SM BR
     FM211300 21005KT P6SM SCT040
     FM220000 13003KT P6SM FEW040 SCT250=



000
FTUS43 KIND 210800 AAC
TAFLAF
TAF AMD
KLAF 210804Z 2108/2206 00000KT 3SM BR SCT250
      TEMPO 2109/2112 1/4SM FG VV002
     FM211400 22004KT P6SM SCT040
      AMD LTD TO CLD VIS AND WIND TIL 211300=



000
FTUS43 KIND 210700 AAB
TAFLAF
TAF AMD
KLAF 210729Z 2107/2206 00000KT 4SM BR SCT250
      TEMPO 2107/2109 2SM BR
     FM210900 00000KT 4SM BR SCT250
      TEMPO 2109/2112 1 1/2SM BR
     FM211400 22004KT P6SM SCT040
      AMD LTD TO CLD VIS AND WIND TIL 211300=



000
FTUS43 KIND 210600 AAA
TAFLAF
TAF AMD
KLAF 210631Z 2107/2206 00000KT 4SM BR SCT250
      TEMPO 2109/2112 1 1/2SM BR
     FM211400 22004KT P6SM SCT040
      AMD LTD TO CLD VIS AND WIND TIL 211300=



000
FTUS43 KIND 210500
TAFIND
TAF
KIND 210520Z 2106/2212 VRB03KT P6SM FEW050 BKN250
     FM211000 VRB02KT 5SM BR SCT250
     FM211300 21005KT P6SM SCT040
     FM220000 13003KT P6SM FEW040 SCT250=



000
FTUS43 KIND 210500
TAFLAF
TAF
KLAF 210520Z 2106/2206 VRB03KT P6SM SCT250
     FM210700 00000KT 4SM BR SCT250
      TEMPO 2109/2112 1 1/2SM BR
     FM211400 22004KT P6SM SCT040
      AMD LTD TO CLD VIS AND WIND TIL 211300=



000
FTUS43 KIND 210200 AAA
TAFIND
TAF AMD
KIND 210201Z 2102/2206 VRB03KT P6SM FEW050 BKN250
     FM211000 VRB02KT 5SM BR SCT250
     FM211300 21005KT P6SM SCT040
     FM220000 13003KT P6SM FEW040 SCT250=



000
FTUS43 KIND 202300
TAFIND
TAF
KIND 202320Z 2100/2206 24004KT P6SM FEW050 BKN250
     FM211000 VRB02KT 5SM BR SCT250
     FM211300 21005KT P6SM SCT040
     FM220000 13003KT P6SM FEW040 SCT250=



000
FTUS43 KIND 202300
TAFLAF
TAF
KLAF 202320Z 2100/2124 VRB03KT P6SM SCT250
     FM210700 00000KT 4SM BR SCT250
      TEMPO 2109/2112 1 1/2SM BR
     FM211400 22004KT P6SM SCT040
      AMD LTD TO CLD VIS AND WIND 2101/2113=



    US Dept of Commerce
    National Oceanic and Atmospheric Administration
    National Weather Service
    1325 East West Highway
    Silver Spring, MD 20910
    Page Author: NWS Internet Services Team
Disclaimer
Information Quality
Credits
Glossary
Privacy Policy
Freedom of Information Act (FOIA)
About Us
Career Opportunities